CheckWX is a tool to help pilots better visualize weather data.  It is not intended as a substitute for an official pre-flight weather briefing.

17:16:23 UTC

KOFK TAF
Norfolk Regional / Karl Stefan Memorial Field Airport
Norfolk, Nebraska, USA
KOFK 181514Z 1815/1912 35014G22KT P6SM OVC015 TEMPO 1816/1818 01011KT BKN025 FM181800 35011KT P6SM BKN040 FM182200 36007KT P6SM FEW130

Aug-18@
15:00 UTC

Aug-18 @ 15:00 UTC

Aug-18@
18:00 UTC

Aug-18 @ 18:00 UTC

KOFK 181514Z 1815/1912 35014G22KT P6SM OVC015
Wind
  • 350° at 14 KTS
  • {Gusting to 22 KTS
Cloud Levels
  • Overcast at 1,500' AGL

Aug-18@
16:00 UTC

Aug-18 @ 16:00 UTC

Aug-18@
18:00 UTC

Aug-18 @ 18:00 UTC

TEMPO 1816/1818 01011KT BKN025

Temporary

Temporary Changes expected for less than half the time period

Wind
  • 010° at 11 KTS
Cloud Levels
  • Broken at 2,500' AGL

Aug-18@
18:00 UTC

Aug-18 @ 18:00 UTC

Aug-18@
22:00 UTC

Aug-18 @ 22:00 UTC

FM181800 35011KT P6SM BKN040

From

From Standard forecast or significant change

Wind
  • 350° at 11 KTS
Cloud Levels
  • Broken at 4,000' AGL

Aug-18@
22:00 UTC

Aug-18 @ 22:00 UTC

Aug-19@
12:00 UTC

Aug-19 @ 12:00 UTC

FM182200 36007KT P6SM FEW130

From

From Standard forecast or significant change

Wind
  • 360° at 7 KTS
Cloud Levels
  • Few at 13,000' AGL